Time;durP1;ratioP1;P1;durP2;ratioP2;P2;SDS_P1;SDS_P2;PMS_P1;PMS_P2;Temp;Humidity;BMP_temperature;BMP_pressure;BME280_temperature;BME280_humidity;BME280_pressure;Samples;Min_cycle;Max_cycle;Signal;HPM_P1;HPM_P2
2021/07/22 00:00:10;;;;;;;11.50;10.43;;;17.10;99.90;;;;;;5071265;28;20454;-69
2021/07/22 00:02:36;;;;;;;11.57;10.38;;;17.00;99.90;;;;;;5064666;28;20488;-68
2021/07/22 00:05:02;;;;;;;12.05;10.27;;;17.00;99.90;;;;;;5072552;28;20040;-68
2021/07/22 00:07:29;;;;;;;11.57;10.40;;;17.10;99.90;;;;;;5072855;28;20064;-68
2021/07/22 00:09:54;;;;;;;11.60;10.40;;;17.10;99.90;;;;;;5085503;22;20033;-65
2021/07/22 00:12:20;;;;;;;11.15;10.05;;;17.10;99.90;;;;;;5029527;28;20091;-65
2021/07/22 00:14:46;;;;;;;11.68;10.40;;;17.10;99.90;;;;;;5040099;28;20055;-67
2021/07/22 00:17:11;;;;;;;11.18;10.07;;;17.20;99.90;;;;;;5033406;28;20034;-66
2021/07/22 00:19:37;;;;;;;11.27;10.15;;;17.10;99.90;;;;;;5031527;28;20083;-66
2021/07/22 00:22:03;;;;;;;12.30;10.82;;;17.10;99.90;;;;;;5033124;28;20045;-66
2021/07/22 00:24:29;;;;;;;14.02;12.40;;;17.00;99.90;;;;;;5051988;28;20051;-66
2021/07/22 00:26:55;;;;;;;12.77;11.52;;;17.00;99.90;;;;;;5035448;28;20033;-67
2021/07/22 00:29:21;;;;;;;11.50;10.30;;;17.10;99.90;;;;;;5033931;28;20490;-67
2021/07/22 00:31:47;;;;;;;11.48;10.35;;;17.10;99.90;;;;;;5032624;28;20069;-66
2021/07/22 00:34:13;;;;;;;11.73;10.32;;;17.10;99.90;;;;;;5032799;28;20041;-66
2021/07/22 00:36:39;;;;;;;11.60;10.18;;;17.10;99.90;;;;;;5032941;28;20049;-66
2021/07/22 00:39:05;;;;;;;11.50;10.32;;;17.10;99.90;;;;;;5031557;28;20042;-66
2021/07/22 00:41:30;;;;;;;11.25;10.07;;;17.10;99.90;;;;;;5048203;28;20041;-67
2021/07/22 00:43:56;;;;;;;9.68;8.73;;;17.20;99.90;;;;;;5043446;28;20073;-66
2021/07/22 00:46:22;;;;;;;10.70;9.60;;;17.20;99.90;;;;;;5032856;28;20041;-66
2021/07/22 00:48:49;;;;;;;12.73;9.05;;;17.10;99.90;;;;;;5030975;28;20480;-66
2021/07/22 00:51:14;;;;;;;9.88;8.88;;;17.10;99.90;;;;;;5033060;28;20044;-66
2021/07/22 00:53:40;;;;;;;10.70;9.65;;;17.00;99.90;;;;;;5029799;28;20473;-66
2021/07/22 00:56:06;;;;;;;10.80;9.63;;;17.00;99.90;;;;;;5032650;28;20095;-67
2021/07/22 00:58:32;;;;;;;10.40;9.43;;;17.00;99.90;;;;;;5030874;28;20112;-67
2021/07/22 01:00:58;;;;;;;12.13;10.88;;;17.00;99.90;;;;;;5032576;28;20064;-67
2021/07/22 01:03:24;;;;;;;12.20;11.00;;;17.00;99.90;;;;;;5024835;28;20459;-67
2021/07/22 01:05:49;;;;;;;12.52;10.68;;;16.90;99.90;;;;;;5032023;28;20037;-66
2021/07/22 01:08:15;;;;;;;13.68;11.48;;;16.90;99.90;;;;;;5032154;28;20072;-66
2021/07/22 01:10:41;;;;;;;12.15;10.85;;;16.90;99.90;;;;;;5030276;28;20061;-66
2021/07/22 01:13:06;;;;;;;12.02;10.82;;;16.90;99.90;;;;;;5031573;28;20037;-66
2021/07/22 01:15:34;;;;;;;11.93;10.82;;;16.90;99.90;;;;;;5024273;28;20049;-66
2021/07/22 01:17:59;;;;;;;12.27;11.07;;;16.80;99.90;;;;;;4999817;28;20088;-66
2021/07/22 01:20:27;;;;;;;13.88;12.40;;;16.90;99.90;;;;;;5013898;28;20507;-66
2021/07/22 01:22:54;;;;;;;14.52;12.18;;;16.80;99.90;;;;;;5016610;28;20037;-66
2021/07/22 01:25:21;;;;;;;12.07;10.88;;;16.70;99.90;;;;;;5031767;28;20042;-66
2021/07/22 01:27:47;;;;;;;13.25;11.43;;;16.70;99.90;;;;;;5030417;28;20119;-67
2021/07/22 01:30:14;;;;;;;14.10;12.50;;;16.60;99.90;;;;;;5031872;28;20106;-66
2021/07/22 01:32:40;;;;;;;13.32;11.95;;;16.40;99.90;;;;;;5031419;28;20041;-66
2021/07/22 01:35:07;;;;;;;12.77;11.48;;;16.30;99.90;;;;;;5031509;28;20039;-66
2021/07/22 01:37:33;;;;;;;13.13;11.75;;;16.30;99.90;;;;;;5031323;28;20156;-66
2021/07/22 01:39:59;;;;;;;13.18;11.77;;;16.30;99.90;;;;;;5034412;28;20148;-67
2021/07/22 01:42:24;;;;;;;12.80;10.63;;;16.40;99.90;;;;;;5051016;28;20067;-67
2021/07/22 01:44:50;;;;;;;12.32;11.15;;;16.40;99.90;;;;;;5031076;28;20108;-67
2021/07/22 01:47:16;;;;;;;12.52;11.30;;;16.40;99.90;;;;;;5030747;28;20042;-67
2021/07/22 01:49:42;;;;;;;13.65;12.35;;;16.40;99.90;;;;;;5030900;28;20057;-67
2021/07/22 01:52:07;;;;;;;13.20;11.90;;;16.40;99.90;;;;;;5031510;28;20041;-66
2021/07/22 01:54:33;;;;;;;13.55;12.25;;;16.50;99.90;;;;;;5030817;28;20068;-66
2021/07/22 01:57:00;;;;;;;14.35;12.90;;;16.50;99.90;;;;;;5031437;28;20148;-67
2021/07/22 01:59:35;;;;;;;13.93;12.02;;;16.50;99.90;;;;;;5029916;28;20045;-66
2021/07/22 02:02:05;;;;;;;13.60;12.18;;;16.50;99.90;;;;;;5031267;28;20083;-67
2021/07/22 02:04:32;;;;;;;13.73;11.23;;;16.50;99.90;;;;;;5029702;28;20049;-67
2021/07/22 02:06:57;;;;;;;12.45;11.10;;;16.50;99.90;;;;;;5031518;28;20463;-66
2021/07/22 02:09:24;;;;;;;13.82;12.52;;;16.50;99.90;;;;;;5030843;28;20120;-66
2021/07/22 02:11:51;;;;;;;13.00;11.77;;;16.50;99.90;;;;;;5013308;28;20058;-67
2021/07/22 02:14:17;;;;;;;14.23;12.82;;;16.40;99.90;;;;;;5030876;28;20056;-66
2021/07/22 02:16:42;;;;;;;12.77;11.57;;;16.40;99.90;;;;;;5030042;28;20045;-66
2021/07/22 02:19:08;;;;;;;13.65;11.85;;;16.40;99.90;;;;;;5030925;28;20033;-67
2021/07/22 02:21:36;;;;;;;13.27;11.95;;;16.40;99.90;;;;;;5031188;28;20038;-66
2021/07/22 02:24:04;;;;;;;12.80;11.52;;;16.40;99.90;;;;;;5030724;28;20061;-66
2021/07/22 02:26:30;;;;;;;13.10;11.80;;;16.40;99.90;;;;;;5031033;28;20064;-66
2021/07/22 02:28:56;;;;;;;12.90;11.60;;;16.40;99.90;;;;;;5032471;28;20467;-66
2021/07/22 02:31:22;;;;;;;13.05;11.75;;;16.40;99.90;;;;;;5030915;28;20403;-68
2021/07/22 02:33:47;;;;;;;14.50;12.20;;;16.40;99.90;;;;;;5029574;28;20041;-67
2021/07/22 02:36:13;;;;;;;13.05;11.73;;;16.40;99.90;;;;;;5030813;28;20038;-67
2021/07/22 02:38:39;;;;;;;14.27;12.48;;;16.50;99.90;;;;;;5030832;28;20368;-67
2021/07/22 02:41:05;;;;;;;13.32;12.02;;;16.50;99.90;;;;;;5043714;28;20128;-67
2021/07/22 02:43:32;;;;;;;14.20;12.70;;;16.50;99.90;;;;;;5050229;28;20120;-67
2021/07/22 02:45:58;;;;;;;13.90;12.15;;;16.50;99.90;;;;;;5030223;28;20099;-67
2021/07/22 02:48:23;;;;;;;13.85;12.45;;;16.50;99.90;;;;;;5030674;28;20037;-67
2021/07/22 02:50:49;;;;;;;14.15;12.68;;;16.50;99.90;;;;;;5029321;28;20107;-67
2021/07/22 02:53:15;;;;;;;13.55;12.10;;;16.50;99.90;;;;;;5030890;28;20456;-67
2021/07/22 02:55:41;;;;;;;14.55;13.15;;;16.60;99.90;;;;;;5030408;28;20041;-67
2021/07/22 02:58:07;;;;;;;12.75;11.45;;;16.50;99.90;;;;;;5031129;28;20572;-67
2021/07/22 03:00:32;;;;;;;13.40;12.05;;;16.40;99.90;;;;;;5030366;28;20092;-67
2021/07/22 03:03:02;;;;;;;15.13;12.32;;;16.40;99.90;;;;;;5030311;28;20072;-67
2021/07/22 03:05:30;;;;;;;13.80;11.80;;;16.40;99.90;;;;;;5023126;28;20057;-67
2021/07/22 03:08:01;;;;;;;14.35;11.93;;;16.50;99.90;;;;;;5010817;28;20034;-67
2021/07/22 03:10:27;;;;;;;12.55;11.30;;;16.40;99.90;;;;;;5022717;28;20060;-67
2021/07/22 03:12:53;;;;;;;12.55;11.30;;;16.40;99.90;;;;;;5030809;28;20045;-68
2021/07/22 03:15:18;;;;;;;14.15;12.80;;;16.50;99.90;;;;;;5030224;28;20038;-67
2021/07/22 03:17:44;;;;;;;13.48;11.98;;;16.50;99.90;;;;;;5030629;28;20095;-67
2021/07/22 03:20:10;;;;;;;17.48;13.55;;;16.50;99.90;;;;;;5012682;28;20108;-67
2021/07/22 03:22:36;;;;;;;16.08;13.98;;;16.60;99.90;;;;;;5012770;28;20057;-67
2021/07/22 03:25:02;;;;;;;16.08;14.40;;;16.60;99.90;;;;;;5029312;28;20041;-67
2021/07/22 03:27:27;;;;;;;15.57;13.60;;;16.60;99.90;;;;;;5030563;28;20041;-67
2021/07/22 03:29:53;;;;;;;16.00;14.30;;;16.60;99.90;;;;;;5039549;28;20068;-67
2021/07/22 03:32:19;;;;;;;15.70;13.98;;;16.70;99.90;;;;;;5030276;28;20056;-67
2021/07/22 03:34:44;;;;;;;15.40;13.73;;;16.70;99.90;;;;;;5030942;28;20104;-67
2021/07/22 03:37:10;;;;;;;14.27;12.93;;;16.70;99.90;;;;;;5034075;28;20044;-67
2021/07/22 03:39:36;;;;;;;14.48;13.02;;;16.70;99.90;;;;;;5033264;28;20041;-67
2021/07/22 03:42:01;;;;;;;14.95;13.05;;;16.70;99.90;;;;;;5053773;28;20090;-67
2021/07/22 03:44:27;;;;;;;16.45;13.15;;;16.70;99.90;;;;;;5043830;28;20037;-67
2021/07/22 03:46:52;;;;;;;17.20;14.23;;;16.70;99.90;;;;;;5033968;28;20045;-67
2021/07/22 03:49:18;;;;;;;16.20;14.60;;;16.70;99.90;;;;;;5033721;28;20037;-67
2021/07/22 03:51:44;;;;;;;15.02;13.52;;;16.70;99.90;;;;;;5033018;28;20045;-67
2021/07/22 03:54:10;;;;;;;25.00;13.43;;;16.80;99.90;;;;;;5033733;28;20041;-67
2021/07/22 03:56:36;;;;;;;15.75;12.88;;;16.80;99.90;;;;;;5033014;28;20042;-67
2021/07/22 03:59:02;;;;;;;15.00;13.45;;;16.80;99.90;;;;;;5032911;28;20037;-67
2021/07/22 04:01:27;;;;;;;14.77;13.27;;;16.80;99.90;;;;;;5032651;28;20099;-67
2021/07/22 04:03:55;;;;;;;15.13;13.52;;;16.80;99.90;;;;;;5032973;28;20041;-67
2021/07/22 04:06:21;;;;;;;14.32;12.80;;;16.80;99.90;;;;;;5025668;28;20056;-67
2021/07/22 04:08:47;;;;;;;15.88;12.90;;;16.80;99.90;;;;;;5015042;28;20045;-67
2021/07/22 04:11:13;;;;;;;13.32;12.02;;;16.90;99.90;;;;;;5030908;28;20065;-67
2021/07/22 04:13:38;;;;;;;16.60;13.95;;;16.80;99.90;;;;;;5023843;28;20104;-68
2021/07/22 04:16:04;;;;;;;15.88;14.05;;;16.80;99.90;;;;;;5016144;28;20415;-67
2021/07/22 04:18:30;;;;;;;16.00;14.10;;;16.70;99.90;;;;;;5013458;28;20093;-67
2021/07/22 04:20:56;;;;;;;15.88;14.07;;;16.70;99.90;;;;;;5026991;28;20033;-67
2021/07/22 04:23:22;;;;;;;15.30;13.73;;;16.70;99.90;;;;;;5033281;28;20064;-67
2021/07/22 04:25:48;;;;;;;15.25;13.65;;;16.60;99.90;;;;;;5032834;28;20137;-67
2021/07/22 04:28:14;;;;;;;14.27;12.85;;;16.70;99.90;;;;;;5032774;28;20041;-67
2021/07/22 04:30:39;;;;;;;15.30;13.23;;;16.60;99.90;;;;;;5031882;28;20068;-67
2021/07/22 04:33:06;;;;;;;15.43;13.38;;;16.60;99.90;;;;;;5032638;28;20041;-67
2021/07/22 04:35:31;;;;;;;16.05;13.00;;;16.70;99.90;;;;;;5015167;28;20383;-67
2021/07/22 04:37:57;;;;;;;15.88;13.05;;;16.70;99.90;;;;;;5032446;28;20045;-67
2021/07/22 04:40:23;;;;;;;15.95;14.25;;;16.70;99.90;;;;;;5029374;28;20036;-67
2021/07/22 04:42:48;;;;;;;15.48;13.88;;;16.80;99.90;;;;;;5024002;28;20480;-67
2021/07/22 04:45:14;;;;;;;16.77;13.60;;;16.80;99.90;;;;;;5032334;28;20059;-67
2021/07/22 04:47:40;;;;;;;14.85;13.00;;;16.80;99.90;;;;;;5031765;28;20042;-67
2021/07/22 04:50:07;;;;;;;14.70;12.43;;;16.90;99.90;;;;;;5032377;28;20041;-67
2021/07/22 04:52:33;;;;;;;14.38;12.63;;;16.90;99.90;;;;;;5032387;28;20099;-67
2021/07/22 04:54:58;;;;;;;12.95;11.75;;;17.00;99.90;;;;;;5032355;28;20049;-67
2021/07/22 04:57:24;;;;;;;12.85;11.45;;;17.10;99.90;;;;;;5032374;28;20665;-67
2021/07/22 04:59:49;;;;;;;12.20;10.63;;;17.10;99.90;;;;;;5030848;28;20045;-67
2021/07/22 05:02:15;;;;;;;12.98;11.57;;;17.20;99.90;;;;;;5032231;28;20622;-67
2021/07/22 05:04:42;;;;;;;12.98;11.68;;;17.20;99.90;;;;;;5032196;28;20033;-67
2021/07/22 05:07:07;;;;;;;12.52;10.80;;;17.20;99.90;;;;;;5026861;28;20072;-67
2021/07/22 05:09:33;;;;;;;11.57;10.40;;;17.30;99.90;;;;;;5014168;28;20519;-67
2021/07/22 05:11:59;;;;;;;12.18;9.82;;;17.40;99.90;;;;;;5014083;28;20045;-67
2021/07/22 05:14:24;;;;;;;11.57;10.00;;;17.40;99.90;;;;;;5031802;28;20117;-67
2021/07/22 05:16:50;;;;;;;11.77;9.75;;;17.50;99.90;;;;;;5015843;28;20558;-67
2021/07/22 05:19:16;;;;;;;9.98;8.98;;;17.60;99.90;;;;;;5031576;28;20064;-67
2021/07/22 05:21:42;;;;;;;11.10;9.23;;;17.60;99.90;;;;;;5012595;28;20357;-67
2021/07/22 05:24:08;;;;;;;9.27;8.32;;;17.70;99.90;;;;;;5031605;28;20091;-67
2021/07/22 05:26:33;;;;;;;9.48;7.45;;;17.80;99.90;;;;;;5031933;28;20049;-67
2021/07/22 05:28:59;;;;;;;8.88;7.22;;;17.80;99.90;;;;;;5038163;28;20441;-67
2021/07/22 05:31:25;;;;;;;8.27;7.47;;;17.80;99.90;;;;;;5031715;28;20499;-67
2021/07/22 05:33:50;;;;;;;7.22;6.53;;;17.90;99.90;;;;;;5031493;28;20045;-67
2021/07/22 05:36:16;;;;;;;7.68;6.50;;;17.80;99.90;;;;;;5031056;28;20053;-67
2021/07/22 05:38:41;;;;;;;6.85;6.10;;;17.90;99.90;;;;;;5030277;28;20037;-67
2021/07/22 05:41:11;;;;;;;8.07;5.80;;;17.80;99.90;;;;;;5043748;28;20044;-67
2021/07/22 05:43:37;;;;;;;6.65;5.95;;;17.90;99.90;;;;;;5050948;28;20045;-67
2021/07/22 05:46:03;;;;;;;6.00;5.50;;;17.90;99.90;;;;;;5035637;28;20038;-68
2021/07/22 05:48:28;;;;;;;6.18;5.53;;;18.00;99.90;;;;;;5031521;28;20065;-68
2021/07/22 05:50:54;;;;;;;7.03;5.97;;;18.00;99.90;;;;;;5030798;28;20037;-64
2021/07/22 05:53:20;;;;;;;7.20;5.82;;;18.10;99.90;;;;;;5031792;28;20053;-64
2021/07/22 05:55:46;;;;;;;6.13;5.55;;;18.10;99.90;;;;;;5031809;28;20095;-64
2021/07/22 05:58:12;;;;;;;6.88;5.85;;;18.20;99.90;;;;;;5028571;28;20476;-64
2021/07/22 06:00:38;;;;;;;7.90;5.47;;;18.30;99.90;;;;;;5031456;28;20064;-64
2021/07/22 06:03:04;;;;;;;7.40;5.50;;;18.30;99.90;;;;;;5031493;28;20467;-64
2021/07/22 06:05:30;;;;;;;7.88;5.32;;;18.30;99.90;;;;;;5031649;28;20056;-64
2021/07/22 06:07:57;;;;;;;5.80;5.20;;;18.30;99.90;;;;;;5027511;28;20038;-64
2021/07/22 06:10:22;;;;;;;6.38;5.60;;;18.10;99.90;;;;;;5013709;28;20053;-64
2021/07/22 06:12:48;;;;;;;5.05;4.55;;;18.20;99.90;;;;;;5031467;28;20045;-64
2021/07/22 06:15:14;;;;;;;7.43;4.70;;;18.30;99.90;;;;;;5034302;28;20034;-64
2021/07/22 06:17:40;;;;;;;5.03;4.50;;;18.40;99.90;;;;;;5051176;28;20116;-64
2021/07/22 06:20:06;;;;;;;5.28;4.63;;;18.50;99.90;;;;;;5032223;28;20041;-64
2021/07/22 06:22:35;;;;;;;5.10;4.43;;;18.60;99.90;;;;;;5014829;28;20048;-64
2021/07/22 06:25:00;;;;;;;5.28;4.78;;;18.70;99.90;;;;;;5033664;28;20033;-65
2021/07/22 06:27:26;;;;;;;5.72;4.00;;;18.80;99.90;;;;;;5041955;28;20539;-64
2021/07/22 06:29:51;;;;;;;5.05;4.10;;;18.80;99.90;;;;;;5035466;28;20410;-64
2021/07/22 06:32:17;;;;;;;6.35;4.07;;;18.90;99.90;;;;;;5030561;28;20049;-64
2021/07/22 06:34:43;;;;;;;5.30;4.03;;;18.80;99.90;;;;;;5030824;28;20128;-64
2021/07/22 06:37:09;;;;;;;4.28;3.85;;;18.90;99.90;;;;;;5031376;28;20065;-64
2021/07/22 06:39:35;;;;;;;4.47;4.07;;;18.90;99.90;;;;;;5030449;28;20042;-64
2021/07/22 06:42:02;;;;;;;7.40;4.50;;;19.00;99.90;;;;;;5039105;28;20092;-64
2021/07/22 06:44:28;;;;;;;4.68;4.05;;;19.00;99.90;;;;;;5046789;28;20052;-64
2021/07/22 06:46:54;;;;;;;4.72;3.70;;;19.00;99.90;;;;;;5032465;28;20041;-64
2021/07/22 06:49:19;;;;;;;5.30;4.18;;;19.20;99.90;;;;;;5031382;28;20033;-64
2021/07/22 06:51:45;;;;;;;4.05;3.65;;;19.30;99.90;;;;;;5036261;28;20041;-64
2021/07/22 06:54:13;;;;;;;4.43;3.97;;;19.50;99.90;;;;;;5049601;28;20045;-64
2021/07/22 06:56:38;;;;;;;5.03;4.28;;;19.70;99.90;;;;;;5020977;28;20042;-64
2021/07/22 06:59:04;;;;;;;4.13;3.75;;;19.50;98.50;;;;;;5015847;28;20038;-64
2021/07/22 07:01:29;;;;;;;4.43;4.03;;;19.30;98.00;;;;;;5030850;28;20121;-64
2021/07/22 07:03:55;;;;;;;5.00;4.30;;;19.70;99.60;;;;;;5031039;28;20041;-64
2021/07/22 07:06:20;;;;;;;4.88;4.38;;;19.90;98.70;;;;;;5029993;28;20111;-64
2021/07/22 07:08:46;;;;;;;4.70;4.07;;;20.10;99.50;;;;;;5027635;28;20757;-66
2021/07/22 07:11:12;;;;;;;4.65;4.07;;;20.40;99.30;;;;;;5032807;28;20099;-66
2021/07/22 07:13:37;;;;;;;4.65;4.13;;;20.60;99.10;;;;;;5016614;28;20120;-66
2021/07/22 07:16:07;;;;;;;5.00;4.28;;;20.70;97.80;;;;;;5033265;28;20128;-66
2021/07/22 07:18:33;;;;;;;4.65;4.15;;;20.50;97.10;;;;;;5016516;28;20072;-66
2021/07/22 07:21:05;;;;;;;6.35;4.18;;;20.30;97.90;;;;;;5016631;28;20045;-66
2021/07/22 07:23:32;;;;;;;5.95;4.00;;;20.30;97.70;;;;;;5034131;28;20410;-66
2021/07/22 07:25:58;;;;;;;4.53;4.10;;;20.20;96.70;;;;;;5033055;28;20045;-66
2021/07/22 07:28:24;;;;;;;5.97;4.20;;;20.60;97.10;;;;;;5033892;28;20088;-66
2021/07/22 07:30:50;;;;;;;4.97;4.22;;;20.30;97.10;;;;;;5015809;28;20380;-66
2021/07/22 07:33:16;;;;;;;4.65;3.60;;;20.60;96.50;;;;;;5032468;28;20068;-66
2021/07/22 07:35:42;;;;;;;6.38;4.43;;;21.00;97.10;;;;;;5033593;28;20169;-66
2021/07/22 07:38:08;;;;;;;6.20;4.82;;;21.20;97.00;;;;;;5033894;28;20068;-66
2021/07/22 07:40:34;;;;;;;4.63;4.22;;;21.40;96.30;;;;;;5033691;28;20034;-66
2021/07/22 07:42:59;;;;;;;4.78;4.28;;;21.50;96.60;;;;;;5033962;28;20045;-66
2021/07/22 07:45:25;;;;;;;5.43;4.47;;;21.60;95.30;;;;;;5033592;28;20080;-66
2021/07/22 07:47:52;;;;;;;5.32;4.20;;;21.10;94.00;;;;;;5033832;28;20068;-66
2021/07/22 07:50:17;;;;;;;4.75;4.10;;;21.20;94.60;;;;;;5038091;28;20041;-65
2021/07/22 07:52:44;;;;;;;4.38;3.90;;;21.60;95.10;;;;;;5033547;28;20033;-67
2021/07/22 07:55:11;;;;;;;4.78;4.30;;;22.20;94.20;;;;;;5015643;28;20048;-65
2021/07/22 07:57:37;;;;;;;4.40;3.85;;;23.00;93.50;;;;;;5033656;28;20116;-65
2021/07/22 08:00:05;;;;;;;4.20;3.80;;;23.50;91.40;;;;;;5033282;28;20451;-66
2021/07/22 08:02:31;;;;;;;4.10;3.70;;;24.20;91.70;;;;;;5033542;28;20518;-66
2021/07/22 08:04:57;;;;;;;4.00;3.60;;;24.80;90.50;;;;;;5032761;28;20031;-66
2021/07/22 08:07:24;;;;;;;3.97;3.58;;;25.40;89.10;;;;;;5031635;28;20113;-66
2021/07/22 08:09:50;;;;;;;4.15;3.70;;;25.70;83.50;;;;;;5029380;28;20072;-66
2021/07/22 08:12:16;;;;;;;4.13;3.70;;;25.80;78.80;;;;;;5030906;28;20053;-66
2021/07/22 08:14:42;;;;;;;3.90;3.50;;;24.30;75.30;;;;;;5032101;28;20057;-66
2021/07/22 08:17:12;;;;;;;4.03;3.72;;;24.60;82.10;;;;;;5033026;28;20060;-66
2021/07/22 08:19:38;;;;;;;4.53;3.50;;;24.60;85.20;;;;;;5031412;28;20092;-66
2021/07/22 08:22:04;;;;;;;3.60;3.30;;;24.50;84.60;;;;;;5030285;28;20045;-66
2021/07/22 08:24:29;;;;;;;5.25;3.47;;;24.70;83.30;;;;;;5030169;28;20038;-66
2021/07/22 08:26:55;;;;;;;3.88;3.58;;;24.60;82.90;;;;;;5032152;28;20428;-66
2021/07/22 08:29:20;;;;;;;4.95;3.40;;;24.50;80.10;;;;;;5032207;28;20483;-66
2021/07/22 08:31:46;;;;;;;4.40;3.40;;;24.50;82.30;;;;;;5032406;28;20045;-65
2021/07/22 08:34:14;;;;;;;4.63;3.40;;;23.90;79.00;;;;;;5014870;28;20041;-66
2021/07/22 08:36:41;;;;;;;3.25;2.80;;;23.60;81.80;;;;;;5014788;28;20057;-66
2021/07/22 08:39:06;;;;;;;3.88;3.50;;;23.40;81.70;;;;;;5032442;28;20471;-65
2021/07/22 08:41:32;;;;;;;4.32;3.50;;;23.10;84.50;;;;;;5032384;28;20045;-66
2021/07/22 08:44:01;;;;;;;4.32;3.60;;;22.80;85.50;;;;;;5031918;28;20057;-66
2021/07/22 08:46:26;;;;;;;5.00;3.60;;;22.70;87.00;;;;;;5023503;28;20061;-65
2021/07/22 08:48:53;;;;;;;5.03;3.47;;;22.90;90.40;;;;;;5034348;28;20084;-66
2021/07/22 08:51:21;;;;;;;3.78;3.40;;;23.00;90.40;;;;;;5031525;28;20041;-66
2021/07/22 08:53:47;;;;;;;4.40;3.20;;;23.00;90.30;;;;;;5014826;28;20103;-66
2021/07/22 08:56:13;;;;;;;5.00;3.53;;;23.10;90.10;;;;;;5029270;28;20041;-66
2021/07/22 08:58:40;;;;;;;6.90;3.58;;;22.80;89.80;;;;;;5031774;28;20635;-66
2021/07/22 09:01:09;;;;;;;5.75;3.50;;;22.50;86.10;;;;;;5014381;28;20052;-66
2021/07/22 09:03:35;;;;;;;4.47;3.20;;;22.60;90.80;;;;;;5032361;28;20041;-66
2021/07/22 09:06:12;;;;;;;3.03;2.78;;;22.50;90.20;;;;;;5032133;28;20036;-66
2021/07/22 09:08:37;;;;;;;5.68;3.40;;;22.40;91.60;;;;;;5032435;28;20041;-66
2021/07/22 09:11:10;;;;;;;3.60;3.10;;;22.20;87.90;;;;;;5026700;28;20104;-66
2021/07/22 09:13:36;;;;;;;6.03;3.22;;;22.20;88.90;;;;;;5032497;28;20033;-72
2021/07/22 09:16:04;;;;;;;3.60;3.28;;;22.40;91.30;;;;;;5033673;28;20034;-72
2021/07/22 09:18:34;;;;;;;4.35;3.03;;;22.30;86.30;;;;;;5031144;28;20041;-72
2021/07/22 09:21:25;;;;;;;4.53;3.03;;;22.50;91.00;;;;;;5032036;28;20068;-72
2021/07/22 09:24:01;;;;;;;;;;;23.00;90.40;;;;;;5014396;28;20445;-72
2021/07/22 09:26:35;;;;;;;3.10;2.88;;;23.30;83.70;;;;;;5031685;28;19999;-72
2021/07/22 09:29:06;;;;;;;3.92;2.92;;;23.00;81.30;;;;;;5031841;28;20033;-72
2021/07/22 09:31:32;;;;;;;4.13;2.88;;;22.80;82.10;;;;;;5031375;28;20076;-72
2021/07/22 09:33:57;;;;;;;4.97;2.92;;;22.50;83.00;;;;;;5029050;28;20041;-71
2021/07/22 09:36:26;;;;;;;2.75;2.47;;;22.80;88.80;;;;;;5030473;28;20033;-71
2021/07/22 09:38:51;;;;;;;5.55;3.10;;;23.00;89.10;;;;;;5030616;28;20036;-72
2021/07/22 09:41:19;;;;;;;3.28;2.90;;;23.10;90.00;;;;;;5031176;28;20050;-71
2021/07/22 09:43:45;;;;;;;3.47;2.85;;;22.20;84.60;;;;;;5013658;28;20116;-71
2021/07/22 09:46:10;;;;;;;3.42;2.97;;;22.40;89.80;;;;;;5031643;28;20117;-71
2021/07/22 09:48:37;;;;;;;4.32;2.80;;;22.20;87.10;;;;;;5031334;28;20493;-71
2021/07/22 09:51:03;;;;;;;3.90;3.05;;;21.90;85.90;;;;;;5013835;28;20045;-71
2021/07/22 09:53:28;;;;;;;3.83;2.88;;;21.80;89.50;;;;;;5030396;28;20121;-71
2021/07/22 09:55:55;;;;;;;3.35;2.70;;;22.20;90.00;;;;;;5031234;28;20041;-70
2021/07/22 09:58:22;;;;;;;5.25;2.60;;;22.40;90.10;;;;;;5031446;28;20479;-71
2021/07/22 10:00:49;;;;;;;2.78;2.58;;;22.80;90.90;;;;;;5013362;28;20597;-71
2021/07/22 10:03:18;;;;;;;7.38;3.15;;;23.10;85.70;;;;;;5013561;28;20073;-71
2021/07/22 10:05:48;;;;;;;3.88;3.17;;;22.00;85.10;;;;;;5030897;28;20541;-72
2021/07/22 10:08:19;;;;;;;2.80;2.60;;;22.80;87.60;;;;;;5031369;28;20104;-72
2021/07/22 10:10:50;;;;;;;4.35;3.03;;;22.70;85.90;;;;;;5024367;28;20566;-71
2021/07/22 10:13:16;;;;;;;3.40;3.10;;;22.50;84.60;;;;;;5029364;28;20029;-71
2021/07/22 10:15:45;;;;;;;3.50;3.20;;;22.50;85.80;;;;;;5030009;28;20120;-71
2021/07/22 10:18:11;;;;;;;4.47;3.33;;;22.60;89.60;;;;;;5029923;28;20038;-71
2021/07/22 10:20:37;;;;;;;4.63;3.10;;;22.80;89.40;;;;;;5030974;28;20041;-71
2021/07/22 10:23:03;;;;;;;5.38;3.30;;;22.80;84.90;;;;;;5030628;28;20042;-71
2021/07/22 10:25:28;;;;;;;5.07;2.90;;;23.10;89.00;;;;;;5031085;28;20083;-71
2021/07/22 10:27:56;;;;;;;5.75;3.03;;;23.30;87.60;;;;;;5030240;28;20506;-71
2021/07/22 10:30:23;;;;;;;3.30;3.00;;;23.40;85.90;;;;;;5031135;28;20479;-71
2021/07/22 10:32:54;;;;;;;4.43;3.05;;;23.30;82.80;;;;;;5026991;28;20049;-71
2021/07/22 10:35:22;;;;;;;3.45;3.10;;;23.00;83.30;;;;;;5029331;28;20497;-71
2021/07/22 10:38:10;;;;;;;5.15;3.20;;;22.00;84.20;;;;;;5029099;28;20045;-71
2021/07/22 10:40:57;;;;;;;3.60;3.25;;;22.00;86.80;;;;;;5030712;28;20041;-72
2021/07/22 10:43:41;;;;;;;4.60;3.30;;;22.10;85.00;;;;;;5030351;28;20047;-72
2021/07/22 10:46:16;;;;;;;3.38;3.03;;;22.00;81.10;;;;;;5031696;28;20048;-71
2021/07/22 10:48:44;;;;;;;3.25;2.85;;;21.70;81.30;;;;;;5034124;28;20041;-71
2021/07/22 10:51:14;;;;;;;3.42;2.97;;;21.60;86.40;;;;;;5040871;28;20051;-72
2021/07/22 10:53:49;;;;;;;4.13;2.85;;;22.00;89.40;;;;;;5034265;28;20060;-71
2021/07/22 10:56:49;;;;;;;4.75;3.40;;;21.70;85.00;;;;;;5032931;28;20041;-73
2021/07/22 10:59:16;;;;;;;3.42;3.03;;;22.20;86.80;;;;;;5014831;28;20072;-71
2021/07/22 11:01:41;;;;;;;4.10;2.90;;;22.50;88.40;;;;;;5025214;28;20079;-71
2021/07/22 11:04:07;;;;;;;4.18;3.25;;;22.60;85.40;;;;;;5034622;28;20065;-73
2021/07/22 11:06:57;;;;;;;4.18;2.67;;;22.80;83.10;;;;;;5034018;28;20048;-72
2021/07/22 11:09:43;;;;;;;2.80;2.60;;;22.90;84.30;;;;;;5033406;28;20045;-72
2021/07/22 11:12:39;;;;;;;3.88;2.75;;;23.10;80.80;;;;;;5012462;28;20037;-71
2021/07/22 11:15:09;;;;;;;3.80;3.30;;;23.00;80.80;;;;;;5032377;28;20145;-71
2021/07/22 11:17:36;;;;;;;4.05;2.92;;;23.00;82.80;;;;;;5034211;28;20171;-71
2021/07/22 11:20:17;;;;;;;3.80;2.95;;;22.90;82.30;;;;;;5034360;28;20046;-71
2021/07/22 11:22:44;;;;;;;4.15;3.10;;;22.80;84.30;;;;;;5033912;28;20113;-71
2021/07/22 11:25:10;;;;;;;3.83;3.03;;;22.60;81.40;;;;;;5034210;28;20041;-71
2021/07/22 11:27:49;;;;;;;3.92;2.95;;;22.50;80.60;;;;;;5033972;28;20116;-71
2021/07/22 11:30:17;;;;;;;3.40;3.00;;;22.90;84.00;;;;;;5015279;28;20038;-71
2021/07/22 11:32:43;;;;;;;3.30;2.92;;;22.90;80.80;;;;;;5033452;28;20041;-71
2021/07/22 11:35:10;;;;;;;3.67;2.88;;;23.00;85.00;;;;;;5033484;28;20047;-71
2021/07/22 11:37:36;;;;;;;3.97;2.80;;;23.20;83.80;;;;;;5022111;28;20042;-71
2021/07/22 11:40:11;;;;;;;3.33;2.80;;;23.40;84.20;;;;;;5031847;28;20487;-70
2021/07/22 11:42:48;;;;;;;3.53;2.72;;;23.60;79.80;;;;;;5004338;28;20363;-70
2021/07/22 11:45:14;;;;;;;2.92;2.65;;;23.80;80.60;;;;;;5031351;28;20124;-71
2021/07/22 11:47:40;;;;;;;4.97;2.58;;;23.70;79.40;;;;;;5012621;28;20120;-71
2021/07/22 11:50:06;;;;;;;4.72;2.78;;;23.80;79.40;;;;;;5044509;28;20462;-74
2021/07/22 11:52:31;;;;;;;4.57;3.33;;;24.00;82.10;;;;;;5035356;28;20045;-74
2021/07/22 11:55:08;;;;;;;3.75;2.92;;;23.80;78.80;;;;;;5032615;28;20046;-73
2021/07/22 11:57:42;;;;;;;3.55;2.80;;;23.80;78.60;;;;;;5033007;28;20069;-73
2021/07/22 12:00:21;;;;;;;5.97;3.58;;;23.90;76.10;;;;;;5033499;28;20099;-73
2021/07/22 12:02:53;;;;;;;4.43;2.90;;;23.70;76.50;;;;;;5031208;28;20455;-73
2021/07/22 12:05:23;;;;;;;;;;;23.80;77.60;;;;;;5031589;28;20584;-73
2021/07/22 12:07:48;;;;;;;4.78;3.10;;;23.40;76.50;;;;;;5033513;28;20350;-74
2021/07/22 12:10:27;;;;;;;3.35;2.80;;;23.20;79.70;;;;;;5032842;28;20048;-73
2021/07/22 12:13:03;;;;;;;3.38;2.97;;;23.00;75.20;;;;;;5032475;28;20041;-74
2021/07/22 12:15:32;;;;;;;4.95;3.00;;;23.00;76.90;;;;;;5004638;28;20053;-74
2021/07/22 12:17:58;;;;;;;4.63;2.83;;;23.20;77.00;;;;;;5030065;28;20038;-74
2021/07/22 12:20:24;;;;;;;3.72;3.13;;;23.50;79.20;;;;;;5032459;28;20034;-73
2021/07/22 12:22:50;;;;;;;3.42;3.10;;;23.20;80.20;;;;;;5017008;28;20486;-73
2021/07/22 12:25:16;;;;;;;4.38;2.65;;;23.50;77.20;;;;;;5045355;22;20060;-66
2021/07/22 12:27:53;;;;;;;2.88;2.50;;;23.40;75.90;;;;;;5037911;28;20076;-65
2021/07/22 12:30:23;;;;;;;3.80;3.25;;;23.60;77.10;;;;;;5029644;28;20470;-66
2021/07/22 12:32:54;;;;;;;4.30;3.28;;;23.60;78.20;;;;;;5039949;28;20037;-66
2021/07/22 12:35:44;;;;;;;3.83;3.53;;;23.70;79.20;;;;;;5051774;28;20036;-66
2021/07/22 12:38:10;;;;;;;3.75;3.15;;;23.10;71.90;;;;;;5051512;28;20039;-66